aviador You're here:

KFRR Decoded Metar

in
Report Time2018-02-22 08:35:00
UTC Time2018-02-22 08:46:32
Flight Rules mvfr MVFR
Wind030° at 10 Gusting to 14 kt
W.Decomp.*RWY 10: 3.4 kt HW 9.4 kt LCW
W.Rank030° ranks 22
Current wind is above 030° avg. (4.3)
Visibility9999 m
Phenomena:N/A
Clouds:Overcast 015 Hf
Expected CloudBase > 400 ft AGL from Temp-Dew spread
Ceiling1,500 ft
Temp13°C
Dew Point12°C (94% RH)
AAT10.0°C
QNH1030 hPa
Raw Report
METAR KFRR 220835Z AUTO 03010G14KT 10SM OVC015 13/12 A3041 RMK AO1=

Extra information for KFRR:More info

Social comments